Time;durP1;ratioP1;P1;durP2;ratioP2;P2;SDS_P1;SDS_P2;PMS_P1;PMS_P2;Temp;Humidity;BMP_temperature;BMP_pressure;BME280_temperature;BME280_humidity;BME280_pressure;Samples;Min_cycle;Max_cycle;Signal;HPM_P1;HPM_P2
2023/12/20 00:01:50;;;;;;;71.97;40.17;;;3.70;72.40;;;;;;6341377;22;20009;-66
2023/12/20 00:04:15;;;;;;;73.97;39.42;;;3.80;72.40;;;;;;6341598;22;20430;-66
2023/12/20 00:06:41;;;;;;;67.97;36.47;;;3.80;72.10;;;;;;6342069;22;20003;-66
2023/12/20 00:09:07;;;;;;;75.82;41.13;;;3.80;72.00;;;;;;6342026;22;20377;-67
2023/12/20 00:11:33;;;;;;;68.05;37.75;;;3.80;72.10;;;;;;6342726;22;20010;-66
2023/12/20 00:13:59;;;;;;;64.63;34.20;;;3.80;71.90;;;;;;6342253;22;20056;-66
2023/12/20 00:16:25;;;;;;;76.22;40.60;;;3.80;72.00;;;;;;6344387;22;19999;-67
2023/12/20 00:18:51;;;;;;;65.75;36.88;;;3.70;71.90;;;;;;6316894;22;20034;-67
2023/12/20 00:21:17;;;;;;;70.85;40.53;;;3.70;71.80;;;;;;6344074;22;20105;-67
2023/12/20 00:23:43;;;;;;;81.53;44.13;;;3.70;71.80;;;;;;6343882;22;20273;-67
2023/12/20 00:26:09;;;;;;;72.38;37.63;;;3.60;71.90;;;;;;6342322;22;20007;-67
2023/12/20 00:28:34;;;;;;;67.13;38.53;;;3.60;72.00;;;;;;6341605;22;20003;-67
2023/12/20 00:31:00;;;;;;;69.43;37.03;;;3.60;72.00;;;;;;6341478;22;20003;-67
2023/12/20 00:33:26;;;;;;;70.88;39.88;;;3.60;72.30;;;;;;6341067;22;20062;-67
2023/12/20 00:35:52;;;;;;;68.15;36.15;;;3.50;72.20;;;;;;6341042;22;19998;-67
2023/12/20 00:38:18;;;;;;;63.78;34.85;;;3.50;72.30;;;;;;6341692;22;20281;-67
2023/12/20 00:40:44;;;;;;;68.88;37.88;;;3.50;72.50;;;;;;6342163;22;20010;-67
2023/12/20 00:43:10;;;;;;;76.32;40.67;;;3.50;72.60;;;;;;6342860;22;19994;-67
2023/12/20 00:45:36;;;;;;;77.40;43.25;;;3.50;72.40;;;;;;6343465;22;20003;-67
2023/12/20 00:48:03;;;;;;;59.85;35.58;;;3.50;72.30;;;;;;6342807;22;20010;-67
2023/12/20 00:50:29;;;;;;;61.38;34.45;;;3.50;72.50;;;;;;6342860;22;20007;-67
2023/12/20 00:52:55;;;;;;;66.20;38.25;;;3.40;72.40;;;;;;6342906;22;20121;-67
2023/12/20 00:55:21;;;;;;;61.63;35.85;;;3.40;72.50;;;;;;6342680;22;20003;-67
2023/12/20 00:57:47;;;;;;;65.55;36.00;;;3.30;72.40;;;;;;6342737;22;19999;-67
2023/12/20 01:00:13;;;;;;;65.18;37.65;;;3.30;72.60;;;;;;6342795;22;19998;-67
2023/12/20 01:02:40;;;;;;;66.18;33.08;;;3.30;72.00;;;;;;6342676;22;20049;-67
2023/12/20 01:05:07;;;;;;;66.43;34.35;;;3.30;72.30;;;;;;6342660;22;20427;-67
2023/12/20 01:07:33;;;;;;;58.90;33.85;;;3.30;72.50;;;;;;6342710;22;19999;-67
2023/12/20 01:10:00;;;;;;;55.90;30.75;;;3.30;72.50;;;;;;6342709;22;20002;-67
2023/12/20 01:12:26;;;;;;;59.60;31.23;;;3.30;72.70;;;;;;6342568;22;20010;-67
2023/12/20 01:14:52;;;;;;;55.92;30.98;;;3.30;72.70;;;;;;6343235;22;20064;-67
2023/12/20 01:17:18;;;;;;;57.58;31.92;;;3.30;72.80;;;;;;6342624;22;20016;-67
2023/12/20 01:19:44;;;;;;;60.35;34.72;;;3.40;72.70;;;;;;6342635;22;20376;-66
2023/12/20 01:22:09;;;;;;;61.35;32.22;;;3.30;72.90;;;;;;6342711;22;19999;-67
2023/12/20 01:24:35;;;;;;;54.05;32.47;;;3.40;72.80;;;;;;6342561;22;20038;-66
2023/12/20 01:27:02;;;;;;;53.55;30.67;;;3.40;72.90;;;;;;6343232;22;20254;-66
2023/12/20 01:29:28;;;;;;;59.17;30.20;;;3.30;73.00;;;;;;6342815;22;20029;-67
2023/12/20 01:31:53;;;;;;;57.80;32.58;;;3.40;73.20;;;;;;6342411;22;20070;-66
2023/12/20 01:34:19;;;;;;;59.60;33.05;;;3.40;73.20;;;;;;6342411;22;19998;-66
2023/12/20 01:36:46;;;;;;;58.70;32.30;;;3.40;73.10;;;;;;6343070;22;20052;-66
2023/12/20 01:39:12;;;;;;;63.20;32.65;;;3.40;73.20;;;;;;6342430;22;20074;-66
2023/12/20 01:41:38;;;;;;;55.70;28.83;;;3.40;73.00;;;;;;6342757;22;20376;-67
2023/12/20 01:44:04;;;;;;;51.92;27.23;;;3.40;72.80;;;;;;6342356;22;20003;-67
2023/12/20 01:46:30;;;;;;;53.58;29.30;;;3.40;72.60;;;;;;6343003;22;20052;-67
2023/12/20 01:48:56;;;;;;;57.13;30.58;;;3.40;72.90;;;;;;6342345;22;20009;-67
2023/12/20 01:51:23;;;;;;;57.40;29.63;;;3.40;73.00;;;;;;6342147;22;20070;-66
2023/12/20 01:53:49;;;;;;;52.25;29.02;;;3.40;73.00;;;;;;6342141;22;20006;-66
2023/12/20 01:56:16;;;;;;;49.42;26.65;;;3.40;73.10;;;;;;6342576;22;20043;-66
2023/12/20 01:58:47;;;;;;;53.80;28.70;;;3.40;72.90;;;;;;6342234;22;20045;-66
2023/12/20 02:01:13;;;;;;;46.88;25.55;;;3.50;73.00;;;;;;6342615;22;20055;-67
2023/12/20 02:03:41;;;;;;;45.63;26.27;;;3.50;73.00;;;;;;6342335;22;20065;-67
2023/12/20 02:06:08;;;;;;;52.92;28.27;;;3.50;72.80;;;;;;6342171;22;19995;-67
2023/12/20 02:08:35;;;;;;;53.22;29.65;;;3.50;73.00;;;;;;6342488;22;19998;-66
2023/12/20 02:11:01;;;;;;;53.90;29.17;;;3.50;72.90;;;;;;6342183;22;20396;-66
2023/12/20 02:13:27;;;;;;;48.40;27.48;;;3.40;72.70;;;;;;6342039;22;20379;-67
2023/12/20 02:15:54;;;;;;;48.70;26.27;;;3.40;72.70;;;;;;6342358;22;19999;-67
2023/12/20 02:18:20;;;;;;;51.47;27.13;;;3.40;72.60;;;;;;6342419;22;19999;-66
2023/12/20 02:20:46;;;;;;;48.88;26.15;;;3.30;72.50;;;;;;6342422;22;20069;-66
2023/12/20 02:23:12;;;;;;;45.78;27.25;;;3.30;72.60;;;;;;6341736;22;20040;-66
2023/12/20 02:25:38;;;;;;;45.05;27.13;;;3.30;72.50;;;;;;6342051;22;20013;-67
2023/12/20 02:28:05;;;;;;;41.97;23.63;;;3.30;72.40;;;;;;6341983;22;20018;-67
2023/12/20 02:30:31;;;;;;;48.80;25.73;;;3.30;72.40;;;;;;6342356;22;20003;-67
2023/12/20 02:32:59;;;;;;;48.10;24.70;;;3.30;72.60;;;;;;6342073;22;20091;-67
2023/12/20 02:35:25;;;;;;;53.65;29.50;;;3.30;72.80;;;;;;6342477;22;20029;-67
2023/12/20 02:37:51;;;;;;;45.90;25.85;;;3.30;72.90;;;;;;6341886;22;20333;-67
2023/12/20 02:40:17;;;;;;;48.45;25.85;;;3.30;72.70;;;;;;6341948;22;20084;-67
2023/12/20 02:42:43;;;;;;;48.60;26.67;;;3.30;72.80;;;;;;6314491;22;19999;-67
2023/12/20 02:45:09;;;;;;;51.58;28.35;;;3.30;72.90;;;;;;6342187;22;20006;-67
2023/12/20 02:47:35;;;;;;;48.63;26.98;;;3.20;72.70;;;;;;6341814;22;20041;-67
2023/12/20 02:50:01;;;;;;;47.08;27.13;;;3.30;72.90;;;;;;6342522;22;20388;-66
2023/12/20 02:52:28;;;;;;;42.45;22.38;;;3.20;73.00;;;;;;6342045;22;20009;-67
2023/12/20 02:54:55;;;;;;;44.25;24.95;;;3.20;73.10;;;;;;6342023;22;20018;-67
2023/12/20 02:57:20;;;;;;;44.58;24.90;;;3.20;73.20;;;;;;6341785;22;19995;-67
2023/12/20 02:59:46;;;;;;;50.13;26.85;;;3.20;73.40;;;;;;6342098;22;20284;-67
2023/12/20 03:02:12;;;;;;;41.13;24.30;;;3.20;73.20;;;;;;6341648;22;20104;-67
2023/12/20 03:04:38;;;;;;;46.58;24.17;;;3.20;72.90;;;;;;6342050;22;19998;-67
2023/12/20 03:07:04;;;;;;;40.17;22.98;;;3.20;73.00;;;;;;6342381;22;20017;-67
2023/12/20 03:09:30;;;;;;;42.90;24.92;;;3.20;73.00;;;;;;6341687;22;20022;-67
2023/12/20 03:11:56;;;;;;;42.25;23.98;;;3.20;73.20;;;;;;6341556;22;20026;-67
2023/12/20 03:14:22;;;;;;;47.63;27.08;;;3.20;72.90;;;;;;6341885;22;20003;-67
2023/12/20 03:16:51;;;;;;;46.95;24.50;;;3.20;72.90;;;;;;6341934;22;20070;-67
2023/12/20 03:19:18;;;;;;;36.75;21.33;;;3.30;72.70;;;;;;6341936;22;20403;-67
2023/12/20 03:21:45;;;;;;;40.00;23.00;;;3.20;72.60;;;;;;6341547;22;20014;-67
2023/12/20 03:24:11;;;;;;;38.30;20.50;;;3.30;72.80;;;;;;6341238;22;20090;-67
2023/12/20 03:26:37;;;;;;;44.05;22.50;;;3.20;72.90;;;;;;6314132;22;20002;-66
2023/12/20 03:29:02;;;;;;;32.80;20.10;;;3.20;73.00;;;;;;6341542;22;20408;-67
2023/12/20 03:31:28;;;;;;;35.53;20.73;;;3.20;73.10;;;;;;6342147;22;20014;-67
2023/12/20 03:33:54;;;;;;;37.58;21.83;;;3.20;72.90;;;;;;6341971;22;20032;-67
2023/12/20 03:36:21;;;;;;;38.85;21.38;;;3.20;72.80;;;;;;6341530;22;20009;-67
2023/12/20 03:38:47;;;;;;;40.97;21.67;;;3.20;72.60;;;;;;6341441;22;20002;-67
2023/12/20 03:41:13;;;;;;;38.97;20.90;;;3.10;72.70;;;;;;6341487;22;20045;-67
2023/12/20 03:43:39;;;;;;;44.90;23.48;;;3.10;72.70;;;;;;6341475;22;19999;-66
2023/12/20 03:46:05;;;;;;;36.38;21.67;;;3.10;72.80;;;;;;6341429;22;20034;-67
2023/12/20 03:48:31;;;;;;;40.13;20.63;;;3.10;72.90;;;;;;6341388;22;19998;-66
2023/12/20 03:50:57;;;;;;;42.75;22.20;;;3.10;72.80;;;;;;6341449;22;20037;-67
2023/12/20 03:53:23;;;;;;;38.63;22.17;;;3.10;73.00;;;;;;6341486;22;19998;-67
2023/12/20 03:55:49;;;;;;;39.30;22.27;;;3.10;72.80;;;;;;6341334;22;20467;-67
2023/12/20 03:58:15;;;;;;;34.80;19.67;;;3.00;72.80;;;;;;6341395;22;20082;-67
2023/12/20 04:00:41;;;;;;;33.05;18.98;;;3.00;72.60;;;;;;6341377;22;19999;-67
2023/12/20 04:03:07;;;;;;;35.88;19.95;;;2.90;72.50;;;;;;6341236;22;20042;-67
2023/12/20 04:05:33;;;;;;;29.88;18.95;;;2.90;72.70;;;;;;6314042;22;20017;-67
2023/12/20 04:08:01;;;;;;;30.60;19.02;;;2.80;72.80;;;;;;6341403;22;20030;-67
2023/12/20 04:10:27;;;;;;;33.70;19.70;;;2.90;73.10;;;;;;6341938;22;20109;-67
2023/12/20 04:12:54;;;;;;;38.63;20.73;;;2.90;73.30;;;;;;6341854;22;20031;-67
2023/12/20 04:15:20;;;;;;;33.45;18.30;;;2.90;73.50;;;;;;6343215;22;20003;-67
2023/12/20 04:17:46;;;;;;;33.20;18.15;;;2.90;73.40;;;;;;6343599;22;20074;-67
2023/12/20 04:20:12;;;;;;;30.30;16.20;;;3.00;73.70;;;;;;6343861;22;19995;-67
2023/12/20 04:22:38;;;;;;;31.92;16.90;;;3.00;73.60;;;;;;6342848;22;20060;-68
2023/12/20 04:25:05;;;;;;;29.80;17.67;;;3.10;73.80;;;;;;6343847;22;20046;-67
2023/12/20 04:27:30;;;;;;;28.98;16.08;;;3.10;73.80;;;;;;6343816;22;19999;-67
2023/12/20 04:29:56;;;;;;;30.08;16.50;;;3.10;73.80;;;;;;6343728;22;20003;-67
2023/12/20 04:32:22;;;;;;;32.60;17.92;;;3.20;73.90;;;;;;6342983;22;20010;-67
2023/12/20 04:34:48;;;;;;;31.25;17.38;;;3.20;74.10;;;;;;6343251;22;19995;-67
2023/12/20 04:37:14;;;;;;;29.85;16.38;;;3.20;74.00;;;;;;6342944;22;20010;-67
2023/12/20 04:39:41;;;;;;;28.52;16.92;;;3.30;74.00;;;;;;6342924;22;19999;-67
2023/12/20 04:42:07;;;;;;;33.42;17.38;;;3.30;74.00;;;;;;6342846;22;20002;-67
2023/12/20 04:44:33;;;;;;;33.10;16.60;;;3.30;74.10;;;;;;6342955;22;20003;-67
2023/12/20 04:46:59;;;;;;;28.83;16.45;;;3.40;74.00;;;;;;6342875;22;20006;-67
2023/12/20 04:49:25;;;;;;;26.30;16.08;;;3.40;74.10;;;;;;6342828;22;20009;-67
2023/12/20 04:51:51;;;;;;;27.23;16.70;;;3.40;73.80;;;;;;6343203;22;20022;-67
2023/12/20 04:54:17;;;;;;;28.92;16.58;;;3.40;73.70;;;;;;6342625;22;20070;-67
2023/12/20 04:56:43;;;;;;;28.15;15.93;;;3.40;73.60;;;;;;6315633;22;19999;-67
2023/12/20 04:59:09;;;;;;;30.80;17.23;;;3.40;73.60;;;;;;6342800;22;20026;-67
2023/12/20 05:01:35;;;;;;;26.85;15.57;;;3.40;73.70;;;;;;6342745;22;19998;-67
2023/12/20 05:04:01;;;;;;;27.15;15.90;;;3.50;73.50;;;;;;6342655;22;19995;-67
2023/12/20 05:06:27;;;;;;;29.02;16.10;;;3.50;73.40;;;;;;6343384;22;20002;-67
2023/12/20 05:08:52;;;;;;;27.70;16.05;;;3.40;73.60;;;;;;6342787;22;19995;-67
2023/12/20 05:11:18;;;;;;;28.73;16.33;;;3.40;73.70;;;;;;6342686;22;19999;-67
2023/12/20 05:13:44;;;;;;;29.48;16.15;;;3.40;73.80;;;;;;6342917;22;20136;-67
2023/12/20 05:16:10;;;;;;;27.85;14.93;;;3.40;73.90;;;;;;6342530;22;20030;-67
2023/12/20 05:18:36;;;;;;;24.58;14.98;;;3.40;73.60;;;;;;6342947;22;20005;-67
2023/12/20 05:21:03;;;;;;;26.05;14.65;;;3.40;73.50;;;;;;6342597;22;20062;-67
2023/12/20 05:23:28;;;;;;;28.75;15.10;;;3.40;73.60;;;;;;6342453;22;20007;-67
2023/12/20 05:25:55;;;;;;;25.95;13.73;;;3.50;73.80;;;;;;6342773;22;20013;-67
2023/12/20 05:28:21;;;;;;;27.00;14.88;;;3.40;73.60;;;;;;6342876;22;19998;-67
2023/12/20 05:30:47;;;;;;;26.85;15.45;;;3.40;73.50;;;;;;6342813;22;19999;-67
2023/12/20 05:33:13;;;;;;;26.05;14.70;;;3.40;73.40;;;;;;6342421;22;20003;-67
2023/12/20 05:35:39;;;;;;;24.52;14.40;;;3.40;73.40;;;;;;6343005;22;20007;-67
2023/12/20 05:38:04;;;;;;;22.80;14.20;;;3.40;73.50;;;;;;6343084;22;20003;-67
2023/12/20 05:40:30;;;;;;;22.70;12.20;;;3.40;73.30;;;;;;6342477;22;20428;-67
2023/12/20 05:42:56;;;;;;;21.60;11.85;;;3.40;73.30;;;;;;6342253;22;19999;-67
2023/12/20 05:45:22;;;;;;;18.23;11.75;;;3.40;73.40;;;;;;6342631;22;19999;-67
2023/12/20 05:47:48;;;;;;;19.08;11.38;;;3.40;73.40;;;;;;6343027;22;19999;-67
2023/12/20 05:50:14;;;;;;;20.35;11.65;;;3.40;73.40;;;;;;6342653;22;20392;-67
2023/12/20 05:52:41;;;;;;;22.02;12.48;;;3.40;73.50;;;;;;6315115;22;20011;-67
2023/12/20 05:55:07;;;;;;;20.33;12.75;;;3.50;73.50;;;;;;6315023;22;20007;-67
2023/12/20 05:57:33;;;;;;;24.75;12.82;;;3.50;73.50;;;;;;6342326;22;20388;-67
2023/12/20 05:59:58;;;;;;;26.20;13.43;;;3.50;73.80;;;;;;6315047;22;20005;-67
2023/12/20 06:02:24;;;;;;;25.50;14.18;;;3.50;73.80;;;;;;6342671;22;20028;-67
2023/12/20 06:04:50;;;;;;;29.00;15.10;;;3.60;73.80;;;;;;6342845;22;20025;-67
2023/12/20 06:07:16;;;;;;;32.10;16.90;;;3.60;73.80;;;;;;6342453;22;20025;-67
2023/12/20 06:09:42;;;;;;;28.20;16.70;;;3.60;73.90;;;;;;6342840;22;20005;-67
2023/12/20 06:12:08;;;;;;;31.33;17.27;;;3.70;73.50;;;;;;6342389;22;20003;-67
2023/12/20 06:14:34;;;;;;;36.35;18.83;;;3.70;73.10;;;;;;6342705;22;20353;-67
2023/12/20 06:17:01;;;;;;;33.97;18.55;;;3.70;72.90;;;;;;6342197;22;20006;-67
2023/12/20 06:19:27;;;;;;;33.83;17.30;;;3.70;72.80;;;;;;6342100;22;20300;-67
2023/12/20 06:21:53;;;;;;;29.40;17.13;;;3.80;72.80;;;;;;6342072;22;20083;-68
2023/12/20 06:24:19;;;;;;;29.98;16.30;;;3.80;73.10;;;;;;6341929;22;20351;-68
2023/12/20 06:26:45;;;;;;;30.05;16.55;;;3.80;73.30;;;;;;6342040;22;20007;-68
2023/12/20 06:29:12;;;;;;;41.03;20.35;;;3.80;73.30;;;;;;6342028;22;20002;-68
2023/12/20 06:31:38;;;;;;;24.50;13.82;;;3.80;73.50;;;;;;6342722;22;20010;-68
2023/12/20 06:34:04;;;;;;;29.30;15.73;;;3.90;73.70;;;;;;6341488;22;19999;-68
2023/12/20 06:36:30;;;;;;;31.00;14.65;;;3.90;73.60;;;;;;6314413;22;20003;-68
2023/12/20 06:38:56;;;;;;;30.73;16.05;;;3.90;73.50;;;;;;6340641;22;20084;-69
2023/12/20 06:41:24;;;;;;;32.03;17.33;;;3.90;73.60;;;;;;6314500;22;20395;-68
2023/12/20 06:43:51;;;;;;;27.55;17.08;;;3.90;73.60;;;;;;6341323;22;20090;-68
2023/12/20 06:46:17;;;;;;;31.70;17.35;;;3.90;73.50;;;;;;6313601;22;20086;-68
2023/12/20 06:48:43;;;;;;;30.90;17.38;;;4.00;73.40;;;;;;6341845;22;20274;-68
2023/12/20 06:51:16;;;;;;;31.30;16.65;;;4.00;73.30;;;;;;6341850;22;20006;-68
2023/12/20 06:53:42;;;;;;;43.78;22.05;;;4.00;73.20;;;;;;6342094;22;19995;-69
2023/12/20 06:56:11;;;;;;;32.45;17.60;;;4.00;72.70;;;;;;6341880;22;20011;-69
2023/12/20 06:58:38;;;;;;;40.70;20.08;;;4.00;72.70;;;;;;6341920;22;19998;-70
2023/12/20 07:01:05;;;;;;;41.17;19.10;;;3.90;73.00;;;;;;6342238;22;20457;-74
2023/12/20 07:03:31;;;;;;;39.72;20.25;;;3.90;73.00;;;;;;6341849;22;20013;-68
2023/12/20 07:05:57;;;;;;;40.90;19.33;;;3.90;73.10;;;;;;6341986;22;20003;-69
2023/12/20 07:08:22;;;;;;;33.60;17.77;;;4.00;72.90;;;;;;6341637;22;20140;-69
2023/12/20 07:10:48;;;;;;;28.95;16.88;;;4.10;73.30;;;;;;6341944;22;20269;-70
2023/12/20 07:13:14;;;;;;;27.70;15.00;;;4.10;73.50;;;;;;6341493;22;20030;-69
2023/12/20 07:15:40;;;;;;;24.83;14.40;;;4.10;73.20;;;;;;6341737;22;20282;-70
2023/12/20 07:18:07;;;;;;;30.08;14.55;;;4.20;73.40;;;;;;6341543;22;20438;-69
2023/12/20 07:20:33;;;;;;;29.33;14.93;;;4.20;73.50;;;;;;6341373;22;20006;-73
2023/12/20 07:22:59;;;;;;;24.85;14.20;;;4.30;73.50;;;;;;6341615;22;20010;-70
2023/12/20 07:25:25;;;;;;;29.05;16.58;;;4.30;73.40;;;;;;6314084;22;20015;-71
2023/12/20 07:27:51;;;;;;;27.95;14.35;;;4.30;73.40;;;;;;6341498;22;19999;-70
2023/12/20 07:30:18;;;;;;;27.90;15.43;;;4.40;73.30;;;;;;6341713;22;20003;-70
2023/12/20 07:32:43;;;;;;;26.60;14.90;;;4.40;73.40;;;;;;6341378;22;20063;-71
2023/12/20 07:35:09;;;;;;;23.73;15.23;;;4.40;73.40;;;;;;6341250;22;20280;-71
2023/12/20 07:37:35;;;;;;;26.42;14.82;;;4.40;73.30;;;;;;6341674;22;20003;-69
2023/12/20 07:40:01;;;;;;;32.05;14.88;;;4.40;73.20;;;;;;6341744;22;20377;-70
2023/12/20 07:42:27;;;;;;;22.75;13.25;;;4.40;73.40;;;;;;6313945;22;20277;-71
2023/12/20 07:44:53;;;;;;;25.48;14.43;;;4.50;73.40;;;;;;6341460;22;20037;-64
2023/12/20 07:47:21;;;;;;;25.73;14.35;;;4.50;73.30;;;;;;6341297;22;20003;-70
2023/12/20 07:49:49;;;;;;;24.33;13.45;;;4.50;73.50;;;;;;6341380;22;20033;-70
2023/12/20 07:52:15;;;;;;;24.50;13.93;;;4.50;73.50;;;;;;6341263;22;20026;-70
2023/12/20 07:54:41;;;;;;;25.20;14.18;;;4.60;73.50;;;;;;6341401;22;20450;-70
2023/12/20 07:57:07;;;;;;;28.98;15.18;;;4.60;73.60;;;;;;6343679;22;19995;-69
2023/12/20 07:59:33;;;;;;;27.38;14.55;;;4.70;73.50;;;;;;6343636;22;20006;-68
2023/12/20 08:01:59;;;;;;;27.23;14.75;;;4.70;73.30;;;;;;6343434;22;20301;-70
2023/12/20 08:04:25;;;;;;;28.80;13.73;;;4.80;73.60;;;;;;6313824;22;20015;-72
2023/12/20 08:06:51;;;;;;;28.23;14.82;;;4.90;73.60;;;;;;6341141;22;19999;-71
2023/12/20 08:09:18;;;;;;;27.67;13.98;;;4.90;73.60;;;;;;6341859;22;19998;-70
2023/12/20 08:11:47;;;;;;;32.25;16.88;;;4.90;73.40;;;;;;6341799;22;20003;-70
2023/12/20 08:14:14;;;;;;;31.95;17.45;;;5.00;73.40;;;;;;6340946;22;20003;-74
2023/12/20 08:16:40;;;;;;;33.17;19.35;;;5.00;73.30;;;;;;6341452;22;20366;-74
2023/12/20 08:19:07;;;;;;;30.33;16.52;;;5.00;73.20;;;;;;6341152;22;20034;-72
2023/12/20 08:21:35;;;;;;;35.28;19.60;;;5.00;73.20;;;;;;6341204;22;20045;-74
2023/12/20 08:24:01;;;;;;;36.17;21.23;;;5.00;73.10;;;;;;6340927;22;20017;-74
2023/12/20 08:26:27;;;;;;;38.15;18.83;;;5.10;73.30;;;;;;6341299;22;20440;-73
2023/12/20 08:28:53;;;;;;;32.53;18.25;;;5.10;73.20;;;;;;6341354;22;20330;-73
2023/12/20 08:31:19;;;;;;;36.35;18.95;;;5.10;73.10;;;;;;6341380;22;20392;-74
2023/12/20 08:33:47;;;;;;;36.65;20.45;;;5.10;73.20;;;;;;6341163;22;19994;-70
2023/12/20 08:36:13;;;;;;;33.65;17.92;;;5.10;73.10;;;;;;6340818;22;20010;-71
2023/12/20 08:38:39;;;;;;;29.77;17.75;;;5.20;73.10;;;;;;6341032;22;19999;-75
2023/12/20 08:41:06;;;;;;;32.58;18.52;;;5.20;73.30;;;;;;6310697;22;20365;-72
2023/12/20 08:43:36;;;;;;;35.63;18.77;;;5.30;73.40;;;;;;6340599;22;19999;-66
2023/12/20 08:46:02;;;;;;;37.58;19.98;;;5.30;73.30;;;;;;6340763;22;19999;-67
2023/12/20 08:48:29;;;;;;;35.42;19.90;;;5.40;73.40;;;;;;6340919;22;20002;-68
2023/12/20 08:50:54;;;;;;;34.10;18.58;;;5.50;73.50;;;;;;6340760;22;20014;-70
2023/12/20 08:53:21;;;;;;;30.77;17.42;;;5.50;73.60;;;;;;6315412;22;20003;-67
2023/12/20 08:55:47;;;;;;;39.33;20.55;;;5.60;73.60;;;;;;6340557;22;20011;-68
2023/12/20 08:58:14;;;;;;;33.75;17.27;;;5.70;73.60;;;;;;6341580;22;20002;-73
2023/12/20 09:00:39;;;;;;;29.23;15.80;;;5.80;73.50;;;;;;6343901;22;20010;-75
2023/12/20 09:03:05;;;;;;;29.20;15.75;;;5.90;73.60;;;;;;6345270;22;19999;-76
2023/12/20 09:05:32;;;;;;;34.13;18.13;;;6.00;73.60;;;;;;6347636;22;19999;-75
2023/12/20 09:07:58;;;;;;;33.35;18.10;;;6.10;73.40;;;;;;6344212;22;20427;-75
2023/12/20 09:10:24;;;;;;;33.95;18.50;;;6.20;73.40;;;;;;6343441;22;19999;-75
2023/12/20 09:12:57;;;;;;;36.53;20.08;;;6.30;73.20;;;;;;6342791;22;20040;-74
2023/12/20 09:15:26;;;;;;;35.08;19.13;;;6.30;73.30;;;;;;6346127;22;20003;-76
2023/12/20 09:17:53;;;;;;;32.75;19.38;;;6.50;73.10;;;;;;6318221;22;20026;-75
2023/12/20 09:20:20;;;;;;;34.33;18.60;;;6.60;73.10;;;;;;6343301;22;20305;-75
2023/12/20 09:22:46;;;;;;;34.42;19.40;;;6.70;73.00;;;;;;6343408;22;20047;-75
2023/12/20 09:25:14;;;;;;;39.17;21.73;;;6.80;73.10;;;;;;6344003;22;20002;-75
2023/12/20 09:27:41;;;;;;;31.80;18.85;;;6.90;72.90;;;;;;6343715;22;19999;-75
2023/12/20 09:30:07;;;;;;;40.42;23.10;;;6.90;72.80;;;;;;6337893;22;19998;-73
2023/12/20 09:32:34;;;;;;;34.05;18.25;;;7.00;72.80;;;;;;6342571;22;20006;-75
2023/12/20 09:35:01;;;;;;;36.03;19.60;;;7.20;72.50;;;;;;6342385;22;20006;-75
2023/12/20 09:37:28;;;;;;;27.80;17.40;;;7.20;72.30;;;;;;6311340;22;20015;-67
2023/12/20 09:39:54;;;;;;;30.77;17.65;;;7.30;72.00;;;;;;6342338;22;19995;-67
2023/12/20 09:42:54;;;;;;;30.58;17.15;;;7.40;72.00;;;;;;6342675;22;20002;-67
2023/12/20 09:45:24;;;;;;;32.20;17.27;;;7.40;71.60;;;;;;6342970;22;20033;-66
2023/12/20 09:47:54;;;;;;;28.02;16.90;;;7.50;71.70;;;;;;6342187;22;20006;-67
2023/12/20 09:50:21;;;;;;;30.60;16.05;;;7.50;71.40;;;;;;6315579;22;20018;-67
2023/12/20 09:52:52;;;;;;;27.75;15.98;;;7.60;71.40;;;;;;6342356;22;19999;-67
2023/12/20 09:55:20;;;;;;;34.17;18.80;;;7.60;71.20;;;;;;6342166;22;20009;-67
2023/12/20 09:57:46;;;;;;;29.75;17.40;;;7.60;71.10;;;;;;6342672;22;20009;-67
2023/12/20 10:00:14;;;;;;;27.20;16.02;;;7.70;71.20;;;;;;6342172;22;19999;-67
2023/12/20 10:02:49;;;;;;;30.25;16.80;;;7.70;71.30;;;;;;6344722;22;20009;-67
2023/12/20 10:05:19;;;;;;;38.28;21.17;;;7.70;71.30;;;;;;6346811;22;20032;-67
2023/12/20 10:07:46;;;;;;;33.50;18.10;;;7.70;71.50;;;;;;6345094;22;20009;-67
2023/12/20 10:10:13;;;;;;;31.27;17.58;;;7.80;71.40;;;;;;6345214;22;20052;-67
2023/12/20 10:12:39;;;;;;;28.80;17.45;;;7.80;71.50;;;;;;6345118;22;19999;-66
2023/12/20 10:15:06;;;;;;;30.23;17.00;;;7.80;71.50;;;;;;6345401;22;20026;-66
2023/12/20 10:17:32;;;;;;;32.55;18.83;;;7.90;71.50;;;;;;6344437;22;20284;-67
2023/12/20 10:19:58;;;;;;;35.67;19.70;;;7.90;71.60;;;;;;6342300;22;19995;-67
2023/12/20 10:22:25;;;;;;;34.97;21.17;;;7.90;71.50;;;;;;6341961;22;20010;-67
2023/12/20 10:24:51;;;;;;;33.75;19.25;;;7.90;71.40;;;;;;6342016;22;20395;-67
2023/12/20 10:27:19;;;;;;;30.33;18.48;;;8.00;71.50;;;;;;6342195;22;20005;-68
2023/12/20 10:29:45;;;;;;;34.92;20.98;;;8.00;71.30;;;;;;6342229;22;20010;-66
2023/12/20 10:32:27;;;;;;;34.20;20.13;;;8.00;71.40;;;;;;6342300;22;20052;-66
2023/12/20 10:34:55;;;;;;;40.63;22.15;;;8.00;71.40;;;;;;6341797;22;20006;-67
2023/12/20 10:37:21;;;;;;;36.10;20.15;;;8.10;71.40;;;;;;6342234;22;20006;-66
2023/12/20 10:39:51;;;;;;;35.78;21.05;;;8.20;71.20;;;;;;6342320;22;20002;-66
2023/12/20 10:42:21;;;;;;;37.00;20.30;;;8.20;71.00;;;;;;6342583;22;20048;-66
2023/12/20 10:44:49;;;;;;;32.90;19.95;;;8.20;71.00;;;;;;6342526;22;20041;-67
2023/12/20 10:47:16;;;;;;;34.78;19.67;;;8.30;71.10;;;;;;6342219;22;20002;-67
2023/12/20 10:49:44;;;;;;;35.72;20.15;;;8.40;71.00;;;;;;6314160;22;20072;-68
2023/12/20 10:52:12;;;;;;;33.03;18.23;;;8.40;70.80;;;;;;6342538;22;20077;-68
2023/12/20 10:54:40;;;;;;;35.70;19.83;;;8.50;70.80;;;;;;6342032;22;20074;-67
2023/12/20 10:57:06;;;;;;;35.72;19.27;;;8.50;70.60;;;;;;6342100;22;20385;-68
2023/12/20 10:59:38;;;;;;;33.97;19.60;;;8.60;70.30;;;;;;6316223;22;20030;-67
2023/12/20 11:02:05;;;;;;;33.30;19.05;;;8.70;70.10;;;;;;6341720;22;20003;-67
2023/12/20 11:05:15;;;;;;;35.70;19.52;;;8.70;70.10;;;;;;6342060;22;19995;-67
2023/12/20 11:07:57;;;;;;;35.35;19.25;;;8.80;70.00;;;;;;6186517;23;20005;-67
2023/12/20 11:13:09;;;;;;;35.45;20.63;;;8.90;69.90;;;;;;6304383;22;20076;-74
2023/12/20 11:15:37;;;;;;;38.30;21.60;;;8.90;69.90;;;;;;6346171;22;20009;-74
2023/12/20 11:18:05;;;;;;;35.28;21.30;;;8.90;69.80;;;;;;6346658;22;19999;-74
2023/12/20 11:20:41;;;;;;;42.25;23.30;;;8.90;69.60;;;;;;6343830;22;20003;-74
2023/12/20 11:23:09;;;;;;;41.40;23.60;;;8.90;69.70;;;;;;6349780;22;20005;-76
2023/12/20 11:25:53;;;;;;;36.50;21.05;;;8.90;69.50;;;;;;6352890;22;20020;-75
2023/12/20 11:28:24;;;;;;;34.70;20.08;;;8.90;69.50;;;;;;6354655;22;19999;-76
2023/12/20 11:30:52;;;;;;;34.03;20.15;;;8.90;69.50;;;;;;6328048;22;20002;-75
2023/12/20 11:33:26;;;;;;;30.90;18.85;;;8.90;69.50;;;;;;6356006;22;19998;-76
2023/12/20 11:35:55;;;;;;;;;;;8.90;69.40;;;;;;6356293;22;20007;-76
2023/12/20 11:38:22;;;;;;;42.15;23.00;;;8.90;68.30;;;;;;6356910;22;19899;-75
2023/12/20 11:40:53;;;;;;;32.20;21.60;;;8.90;68.70;;;;;;6356502;22;20010;-76
2023/12/20 11:45:51;;;;;;;39.33;20.67;;;8.90;68.90;;;;;;6311340;22;20354;-67
2023/12/20 11:48:18;;;;;;;41.15;23.02;;;8.90;69.00;;;;;;6341887;22;20011;-68
2023/12/20 11:50:45;;;;;;;37.83;21.58;;;8.90;69.10;;;;;;6341503;22;20003;-67
2023/12/20 11:53:12;;;;;;;42.85;25.00;;;8.90;69.00;;;;;;6342116;22;19999;-68
2023/12/20 11:55:39;;;;;;;47.78;25.90;;;8.90;68.70;;;;;;6341314;22;19999;-68
2023/12/20 11:58:05;;;;;;;51.03;27.95;;;8.90;69.20;;;;;;6342111;22;19999;-68
2023/12/20 12:00:31;;;;;;;44.28;25.38;;;8.90;69.20;;;;;;6342005;22;20013;-68
2023/12/20 12:02:58;;;;;;;45.60;27.05;;;8.80;69.60;;;;;;6341707;22;20006;-69
2023/12/20 12:05:24;;;;;;;45.90;26.42;;;8.80;69.50;;;;;;6341641;22;20029;-68
2023/12/20 12:07:50;;;;;;;41.50;24.55;;;8.80;69.70;;;;;;6314773;22;20081;-68
2023/12/20 12:10:16;;;;;;;43.55;24.67;;;8.70;69.90;;;;;;6341328;22;20006;-68
2023/12/20 12:12:43;;;;;;;38.05;23.02;;;8.80;69.90;;;;;;6341979;22;20073;-69
2023/12/20 12:15:09;;;;;;;38.55;21.25;;;8.80;70.00;;;;;;6341158;22;20392;-69
2023/12/20 12:17:35;;;;;;;36.80;22.90;;;8.80;70.00;;;;;;6341211;22;20082;-68
2023/12/20 12:20:05;;;;;;;40.92;23.30;;;8.90;70.10;;;;;;6341322;22;19998;-68
2023/12/20 12:22:32;;;;;;;39.45;22.25;;;8.90;70.00;;;;;;6341578;22;20010;-68
2023/12/20 12:25:11;;;;;;;34.92;21.13;;;8.90;70.10;;;;;;6341392;22;20078;-69
2023/12/20 12:27:40;;;;;;;39.30;22.75;;;9.00;70.10;;;;;;6341679;22;20387;-68
2023/12/20 12:30:10;;;;;;;36.63;22.13;;;9.00;70.20;;;;;;6341142;22;20419;-69
2023/12/20 12:32:37;;;;;;;39.40;24.13;;;9.10;70.20;;;;;;6341938;22;20327;-67
2023/12/20 12:35:06;;;;;;;46.03;26.90;;;9.10;70.20;;;;;;6341940;22;20343;-68
2023/12/20 12:37:35;;;;;;;38.95;23.77;;;9.10;70.10;;;;;;6342961;22;20078;-67
2023/12/20 12:40:01;;;;;;;39.22;25.00;;;9.10;70.00;;;;;;6316991;22;20014;-70
2023/12/20 12:42:28;;;;;;;41.78;26.35;;;9.20;69.90;;;;;;6343342;22;20314;-67